Time;durP1;ratioP1;P1;durP2;ratioP2;P2;SDS_P1;SDS_P2;PMS_P1;PMS_P2;Temp;Humidity;BMP_temperature;BMP_pressure;BME280_temperature;BME280_humidity;BME280_pressure;Samples;Min_cycle;Max_cycle;Signal;HPM_P1;HPM_P2
2022/01/28 00:01:50;;;;;;;14.27;4.28;;;;;;;5.96;88.38;102888.53;4773583;30;20067;-52
2022/01/28 00:04:18;;;;;;;15.68;3.90;;;;;;;5.96;88.11;102885.81;4758237;30;20064;-49
2022/01/28 00:06:46;;;;;;;15.07;3.75;;;;;;;5.97;87.92;102892.88;4769912;30;20064;-47
2022/01/28 00:09:14;;;;;;;14.25;3.42;;;;;;;5.95;87.36;102894.94;4770480;30;20059;-47
2022/01/28 00:11:42;;;;;;;13.52;4.18;;;;;;;5.94;87.24;102903.22;4770245;30;20055;-48
2022/01/28 00:38:44;;;;;;;17.25;4.38;;;;;;;5.81;86.78;102903.84;4862751;29;20048;-49
2022/01/28 00:41:14;;;;;;;19.95;3.90;;;;;;;5.81;86.34;102906.56;4862616;29;20412;-50
2022/01/28 00:43:42;;;;;;;15.02;3.80;;;;;;;5.80;86.19;102907.59;4863054;29;20085;-49
2022/01/28 00:46:10;;;;;;;13.57;4.05;;;;;;;5.78;86.62;102906.94;4863047;29;20049;-49
2022/01/28 00:48:38;;;;;;;14.95;4.05;;;;;;;5.74;86.20;102911.03;4862148;29;20045;-54
2022/01/28 00:51:05;;;;;;;16.85;4.43;;;;;;;5.74;86.49;102892.09;4845492;29;20049;-51
2022/01/28 00:53:33;;;;;;;13.77;3.40;;;;;;;5.74;86.59;102905.59;4862387;29;20496;-51
2022/01/28 00:56:00;;;;;;;13.27;3.50;;;;;;;5.74;86.93;102909.16;4846254;29;20042;-53
2022/01/28 00:58:28;;;;;;;14.13;3.92;;;;;;;5.75;87.16;102918.97;4862118;29;20039;-50
2022/01/28 01:00:56;;;;;;;13.38;3.40;;;;;;;5.74;87.19;102908.31;4862526;29;20127;-47
2022/01/28 01:03:23;;;;;;;17.08;3.70;;;;;;;5.72;87.24;102911.22;4861943;29;20520;-50
2022/01/28 01:05:51;;;;;;;11.30;3.42;;;;;;;5.70;87.41;102909.69;4862189;29;20073;-49
2022/01/28 01:08:18;;;;;;;15.18;3.90;;;;;;;5.68;88.09;102903.66;4862263;29;20037;-51
2022/01/28 01:10:46;;;;;;;17.20;4.35;;;;;;;5.66;87.94;102906.53;4845622;29;20140;-50
2022/01/28 01:13:14;;;;;;;16.42;4.10;;;;;;;5.66;88.47;102900.28;4862023;29;20069;-52
2022/01/28 01:15:45;;;;;;;16.42;3.65;;;;;;;5.64;88.54;102913.16;4862253;29;20060;-49
2022/01/28 01:18:24;;;;;;;16.17;4.00;;;;;;;5.64;88.94;102913.16;4861471;29;20054;-50
2022/01/28 01:23:32;;;;;;;;;;;;;;;5.67;88.81;102920.91;4862318;29;20129;-47
2022/01/28 01:28:35;;;;;;;14.52;3.35;;;;;;;5.66;88.73;102927.34;4843479;29;20133;-47
2022/01/28 01:31:08;;;;;;;14.05;4.00;;;;;;;5.65;88.52;102941.88;4860884;29;20052;-49
2022/01/28 01:33:42;;;;;;;14.18;3.60;;;;;;;5.66;88.71;102954.38;4861687;29;20045;-48
2022/01/28 01:36:09;;;;;;;13.75;3.47;;;;;;;5.67;88.69;102945.22;4862669;29;20038;-50
2022/01/28 01:38:39;;;;;;;16.35;3.85;;;;;;;5.67;88.55;102940.66;4862084;29;20045;-49
2022/01/28 01:41:13;;;;;;;15.00;3.58;;;;;;;5.67;88.29;102953.34;4861422;29;20045;-47
2022/01/28 01:44:23;;;;;;;16.15;3.83;;;;;;;5.66;88.22;102957.09;4846200;29;20060;-49
2022/01/28 01:52:41;;;;;;;17.23;4.32;;;;;;;5.67;88.31;102967.69;4860871;29;20045;-50
2022/01/28 01:55:09;;;;;;;16.45;4.07;;;;;;;5.67;88.58;102966.88;4861525;29;20049;-52
2022/01/28 01:57:38;;;;;;;15.48;3.78;;;;;;;5.68;88.51;102984.78;4861298;29;20049;-53
2022/01/28 02:00:07;;;;;;;12.48;3.78;;;;;;;5.68;88.37;102991.03;4860905;29;20066;-47
2022/01/28 02:02:34;;;;;;;12.43;3.70;;;;;;;5.70;88.47;102985.44;4860738;29;20057;-49
2022/01/28 02:05:05;;;;;;;13.40;4.22;;;;;;;5.69;88.27;102987.31;4861604;29;20098;-49
2022/01/28 02:07:33;;;;;;;14.40;3.85;;;;;;;5.72;88.25;102991.50;4861342;29;20041;-48
2022/01/28 02:10:00;;;;;;;12.02;3.72;;;;;;;5.71;88.25;102998.78;4861139;29;20475;-49
2022/01/28 02:12:31;;;;;;;21.33;4.18;;;;;;;5.71;88.04;102995.25;4844613;29;20476;-48
2022/01/28 02:14:59;;;;;;;14.70;3.97;;;;;;;5.71;88.19;102995.25;4844571;29;20109;-50
2022/01/28 02:17:27;;;;;;;17.77;4.07;;;;;;;5.69;87.79;103005.41;4860997;29;20050;-49
2022/01/28 02:19:54;;;;;;;15.25;4.10;;;;;;;5.68;88.05;103007.28;4861503;29;20056;-49
2022/01/28 02:22:22;;;;;;;15.05;3.85;;;;;;;5.70;88.20;103015.19;4860994;29;20053;-48
2022/01/28 02:24:49;;;;;;;12.85;3.63;;;;;;;5.70;88.06;103015.19;4860700;29;20049;-49
2022/01/28 02:27:17;;;;;;;15.88;4.03;;;;;;;5.70;88.21;103017.88;4860970;29;20049;-50
2022/01/28 02:29:46;;;;;;;15.32;3.70;;;;;;;5.69;88.29;103013.50;4859855;29;20046;-48
2022/01/28 02:32:13;;;;;;;13.82;4.03;;;;;;;5.70;88.59;103009.78;4861243;29;20075;-48
2022/01/28 02:34:41;;;;;;;17.13;4.03;;;;;;;5.71;88.32;103011.47;4860627;29;20042;-49
2022/01/28 02:37:09;;;;;;;18.17;4.38;;;;;;;5.69;88.64;103008.09;4849663;29;20041;-50
2022/01/28 02:39:38;;;;;;;13.38;3.88;;;;;;;5.70;88.63;103012.47;4861115;29;20058;-47
2022/01/28 02:42:20;;;;;;;13.38;4.05;;;;;;;5.69;88.45;103021.63;4860727;29;20049;-59
2022/01/28 02:44:52;;;;;;;14.43;4.20;;;;;;;5.67;88.89;103029.06;4860742;29;20438;-50
2022/01/28 02:47:31;;;;;;;15.48;4.07;;;;;;;5.66;89.11;103028.25;4861066;29;20072;-51
2022/01/28 02:49:59;;;;;;;14.77;3.67;;;;;;;5.66;89.30;103032.81;4860811;29;20077;-49
2022/01/28 02:52:39;;;;;;;15.57;4.13;;;;;;;5.67;89.29;103038.03;4860650;29;20519;-50
2022/01/28 02:55:10;;;;;;;13.57;3.90;;;;;;;5.68;89.15;103034.31;4860238;29;20049;-51
2022/01/28 02:57:50;;;;;;;12.90;3.40;;;;;;;5.68;89.44;103037.03;4844287;29;20061;-48
2022/01/28 03:00:17;;;;;;;15.60;4.32;;;;;;;5.69;89.46;103043.25;4860806;29;20144;-49
2022/01/28 03:02:45;;;;;;;18.17;4.15;;;;;;;5.69;89.30;103051.38;4860776;29;20054;-53
2022/01/28 03:07:44;;;;;;;19.85;4.05;;;;;;;5.67;89.78;103054.25;4859844;29;20049;-51
2022/01/28 03:13:02;;;;;;;16.42;3.95;;;;;;;5.67;89.72;103053.41;4860627;29;20049;-48
2022/01/28 03:15:32;;;;;;;12.23;3.33;;;;;;;5.67;90.11;103058.81;4860397;29;20041;-50
2022/01/28 03:20:43;;;;;;;11.57;3.53;;;;;;;5.65;89.91;103052.75;4845666;29;20113;-48
2022/01/28 03:23:11;;;;;;;17.88;3.88;;;;;;;5.65;90.34;103055.44;4860394;29;20493;-49
2022/01/28 03:25:43;;;;;;;17.13;3.70;;;;;;;5.65;90.19;103055.44;4860308;29;20445;-48
2022/01/28 03:28:12;;;;;;;13.88;3.45;;;;;;;5.63;90.11;103052.94;4860096;29;20033;-49
2022/01/28 03:30:40;;;;;;;12.05;4.03;;;;;;;5.63;90.09;103052.94;4860441;29;20057;-46
2022/01/28 03:33:07;;;;;;;21.85;3.95;;;;;;;5.63;90.07;103069.19;4860658;29;20055;-46
2022/01/28 03:35:36;;;;;;;18.25;3.72;;;;;;;5.62;90.22;103072.88;4860594;29;20564;-45
2022/01/28 03:38:07;;;;;;;16.25;4.28;;;;;;;5.61;90.07;103067.69;4859673;29;20037;-47
2022/01/28 03:40:38;;;;;;;15.80;4.05;;;;;;;5.60;90.07;103060.56;4861055;29;20046;-44
2022/01/28 03:43:07;;;;;;;16.85;4.55;;;;;;;5.57;90.23;103064.47;4863874;29;20053;-44
2022/01/28 03:45:35;;;;;;;12.95;3.22;;;;;;;5.55;90.75;103058.41;4863976;29;20124;-44
2022/01/28 03:48:03;;;;;;;13.95;3.83;;;;;;;5.54;90.46;103062.97;4863589;29;20057;-46
2022/01/28 03:50:33;;;;;;;11.70;3.65;;;;;;;5.55;90.42;103059.22;4863954;29;20068;-51
2022/01/28 03:53:02;;;;;;;16.60;3.92;;;;;;;5.53;90.20;103058.59;4863589;29;20046;-49
2022/01/28 03:55:30;;;;;;;14.55;3.50;;;;;;;5.52;90.40;103053.34;4863591;29;20044;-50
2022/01/28 03:57:57;;;;;;;12.27;3.25;;;;;;;5.51;90.34;103057.09;4843984;29;20056;-51
2022/01/28 04:00:28;;;;;;;15.07;4.45;;;;;;;5.48;90.45;103060.13;4844005;29;20524;-51
2022/01/28 04:03:13;;;;;;;15.10;3.33;;;;;;;5.47;90.70;103066.56;4844498;29;20085;-55
2022/01/28 04:13:47;;;;;;;;;;;;;;;5.48;91.49;103063.69;4863994;29;20055;-49
2022/01/28 04:16:29;;;;;;;12.07;3.75;;;;;;;5.47;91.25;103069.28;4863291;29;19931;-46
2022/01/28 04:18:57;;;;;;;12.13;3.42;;;;;;;5.48;91.85;103079.91;4862391;29;20046;-51
2022/01/28 04:21:25;;;;;;;13.95;3.22;;;;;;;5.47;92.02;103082.78;4863389;29;20042;-49
2022/01/28 04:23:52;;;;;;;15.15;4.05;;;;;;;5.47;92.33;103086.34;4863357;29;20049;-47
2022/01/28 04:26:20;;;;;;;15.80;4.18;;;;;;;5.46;92.25;103078.38;4863159;29;20050;-48
2022/01/28 04:28:47;;;;;;;16.17;3.88;;;;;;;5.44;92.38;103075.88;4862728;29;20090;-52
2022/01/28 04:31:15;;;;;;;14.60;3.45;;;;;;;5.40;92.92;103079.13;4863697;29;20042;-54
2022/01/28 04:33:42;;;;;;;16.65;4.00;;;;;;;5.37;93.13;103083.03;4863175;29;20102;-46
2022/01/28 04:36:13;;;;;;;12.30;3.80;;;;;;;5.36;93.37;103094.84;4863182;29;20389;-48
2022/01/28 04:38:50;;;;;;;15.07;4.18;;;;;;;5.35;93.09;103098.56;4862529;29;20056;-48
2022/01/28 04:41:28;;;;;;;14.90;3.97;;;;;;;5.34;93.30;103102.31;4862931;29;20049;-50
2022/01/28 04:44:04;;;;;;;16.48;3.88;;;;;;;5.36;93.38;103111.06;4846582;29;20046;-47
2022/01/28 04:46:41;;;;;;;20.42;4.50;;;;;;;5.35;93.22;103103.97;4863044;29;20485;-49
2022/01/28 04:49:21;;;;;;;17.75;4.30;;;;;;;5.33;93.15;103106.00;4862436;29;20045;-48
2022/01/28 04:54:52;;;;;;;;;;;;;;;5.27;93.17;103112.13;4862735;29;20105;-50
2022/01/28 05:03:06;;;;;;;16.30;4.50;;;;;;;5.27;92.78;103104.03;4787477;30;20062;-48
2022/01/28 05:26:55;;;;;;;12.98;3.78;;;;;;;5.26;92.97;103153.69;4770794;30;20427;-49
2022/01/28 05:29:23;;;;;;;18.90;4.63;;;;;;;5.26;92.98;103149.09;4770101;30;20145;-46
2022/01/28 05:31:51;;;;;;;16.48;3.58;;;;;;;5.28;93.17;103147.09;4770864;30;20587;-46
2022/01/28 05:34:18;;;;;;;11.93;3.72;;;;;;;5.28;92.78;103151.66;4769444;30;20051;-46
2022/01/28 05:36:46;;;;;;;10.95;3.42;;;;;;;5.27;92.86;103166.19;4769432;30;20427;-45
2022/01/28 05:39:14;;;;;;;20.52;3.92;;;;;;;5.23;93.08;103168.38;4804472;29;20049;-45
2022/01/28 05:41:41;;;;;;;11.73;3.42;;;;;;;5.23;93.38;103159.44;4855773;29;20050;-45
2022/01/28 05:44:09;;;;;;;14.15;3.90;;;;;;;5.24;93.21;103167.38;4860753;29;20050;-46
2022/01/28 05:46:36;;;;;;;13.55;3.65;;;;;;;5.26;93.41;103180.72;4861828;29;20042;-45
2022/01/28 05:49:04;;;;;;;16.45;3.53;;;;;;;5.26;93.10;103186.13;4861842;29;20053;-47
2022/01/28 05:51:31;;;;;;;14.82;3.97;;;;;;;5.24;93.35;103190.84;4861402;29;20046;-49
2022/01/28 05:53:59;;;;;;;13.55;4.05;;;;;;;5.24;93.60;103193.56;4861537;29;20041;-45
2022/01/28 05:56:27;;;;;;;13.93;4.03;;;;;;;5.26;93.87;103199.63;4861361;29;20042;-46
2022/01/28 05:58:55;;;;;;;14.80;3.80;;;;;;;5.26;93.94;103191.53;4861637;29;20080;-45
2022/01/28 06:01:23;;;;;;;14.10;3.50;;;;;;;5.26;94.16;103196.94;4860940;29;20504;-45
2022/01/28 06:03:51;;;;;;;14.85;3.38;;;;;;;5.27;94.55;103206.75;4860606;29;20096;-45
2022/01/28 06:06:20;;;;;;;13.77;3.38;;;;;;;5.26;94.65;103207.75;4861115;29;20488;-44
2022/01/28 06:08:52;;;;;;;13.10;3.65;;;;;;;5.26;95.20;103213.97;4861306;29;20424;-47
2022/01/28 06:11:20;;;;;;;12.80;3.78;;;;;;;5.25;95.34;103211.47;4860958;29;20052;-48
2022/01/28 06:13:48;;;;;;;15.02;4.15;;;;;;;5.25;95.35;103214.19;4860826;29;20069;-45
2022/01/28 06:16:17;;;;;;;17.75;4.20;;;;;;;5.25;95.33;103217.72;4861142;29;20055;-44
2022/01/28 06:18:45;;;;;;;16.42;3.38;;;;;;;5.25;95.57;103217.72;4860797;29;20053;-45
2022/01/28 06:21:13;;;;;;;14.90;3.70;;;;;;;5.26;95.56;103224.78;4860626;29;20097;-45
2022/01/28 06:23:41;;;;;;;13.55;3.65;;;;;;;5.29;95.23;103235.28;4860851;29;20057;-45
2022/01/28 06:26:08;;;;;;;14.32;3.97;;;;;;;5.30;95.21;103236.13;4860700;29;20053;-45
2022/01/28 06:28:36;;;;;;;16.73;4.40;;;;;;;5.28;95.11;103233.56;4861107;29;20408;-44
2022/01/28 06:31:04;;;;;;;12.48;3.63;;;;;;;5.28;95.00;103240.84;4860790;29;20060;-48
2022/01/28 06:33:31;;;;;;;13.15;3.70;;;;;;;5.29;94.98;103240.69;4860442;29;20137;-46
2022/01/28 06:35:59;;;;;;;11.60;3.80;;;;;;;5.29;95.37;103245.22;4860798;29;20053;-50
2022/01/28 06:38:27;;;;;;;15.15;4.25;;;;;;;5.29;94.99;103250.63;4860681;29;20050;-46
2022/01/28 06:40:54;;;;;;;16.67;3.53;;;;;;;5.29;94.78;103258.75;4860797;29;20054;-48
2022/01/28 06:43:22;;;;;;;18.85;3.88;;;;;;;5.26;94.96;103262.63;4860291;29;20052;-48
2022/01/28 06:45:49;;;;;;;17.25;3.47;;;;;;;5.24;94.77;103258.41;4859737;29;20045;-46
2022/01/28 06:48:18;;;;;;;13.18;3.80;;;;;;;5.22;94.81;103265.84;4860632;29;20086;-46
2022/01/28 06:50:47;;;;;;;14.30;3.72;;;;;;;5.18;94.96;103268.06;4843964;29;20082;-47
2022/01/28 06:53:16;;;;;;;16.17;4.38;;;;;;;5.15;94.71;103272.97;4860011;29;20460;-45
2022/01/28 06:55:43;;;;;;;16.02;4.43;;;;;;;5.15;94.87;103286.47;4860547;29;20053;-45
2022/01/28 06:58:11;;;;;;;11.50;3.80;;;;;;;5.12;94.63;103283.13;4859834;29;20561;-43
2022/01/28 07:00:40;;;;;;;16.50;4.40;;;;;;;5.11;94.56;103270.59;4860211;29;20049;-49
2022/01/28 07:03:10;;;;;;;20.60;4.45;;;;;;;5.09;94.13;103272.63;4859935;29;20131;-45
2022/01/28 07:05:38;;;;;;;18.90;4.13;;;;;;;5.05;94.16;103287.53;4860285;29;20050;-50
2022/01/28 07:08:06;;;;;;;14.15;3.63;;;;;;;5.04;94.05;103302.03;4860182;29;20068;-51
2022/01/28 07:10:35;;;;;;;16.05;3.97;;;;;;;5.04;94.07;103306.59;4860067;29;20080;-50
2022/01/28 07:13:03;;;;;;;16.52;4.32;;;;;;;5.05;93.86;103303.72;4860348;29;20065;-50
2022/01/28 07:15:52;;;;;;;15.55;4.04;;;;;;;5.06;93.98;103307.28;4818306;29;10001425;-52
2022/01/28 07:18:20;;;;;;;14.02;3.70;;;;;;;5.07;93.36;103308.94;4861168;29;20263;-51
2022/01/28 07:20:47;;;;;;;14.75;3.90;;;;;;;5.08;94.11;103311.50;4860910;29;20053;-52
2022/01/28 07:23:15;;;;;;;19.67;4.60;;;;;;;5.11;93.29;103323.81;4860495;29;20068;-53
2022/01/28 07:25:43;;;;;;;14.88;4.18;;;;;;;5.12;93.14;103317.38;4860648;29;20520;-50
2022/01/28 07:28:10;;;;;;;17.20;4.00;;;;;;;5.12;93.15;103318.25;4860660;29;20540;-49
2022/01/28 07:30:38;;;;;;;14.63;4.30;;;;;;;5.16;93.08;103315.19;4860524;29;20053;-51
2022/01/28 07:33:08;;;;;;;14.27;3.63;;;;;;;5.16;92.87;103320.59;4860447;29;20132;-49
2022/01/28 07:35:35;;;;;;;15.00;4.13;;;;;;;5.16;92.58;103316.03;4860728;29;20424;-46
2022/01/28 07:38:03;;;;;;;16.25;4.55;;;;;;;5.16;92.55;103331.41;4860145;29;20053;-47
2022/01/28 07:40:31;;;;;;;12.82;3.83;;;;;;;5.15;92.22;103335.97;4860397;29;20427;-48
2022/01/28 07:42:59;;;;;;;14.13;3.72;;;;;;;5.17;92.42;103333.09;4860519;29;20245;-46
2022/01/28 07:45:26;;;;;;;21.48;4.63;;;;;;;5.19;92.30;103339.19;4860552;29;20497;-48
2022/01/28 07:47:54;;;;;;;14.27;3.63;;;;;;;5.17;92.11;103343.91;4860082;29;20059;-47
2022/01/28 07:50:22;;;;;;;15.15;3.90;;;;;;;5.20;92.20;103354.41;4860102;29;20038;-48
2022/01/28 07:52:50;;;;;;;14.95;4.13;;;;;;;5.23;92.10;103359.44;4859916;29;20045;-49
2022/01/28 07:55:18;;;;;;;17.60;3.85;;;;;;;5.25;92.20;103352.03;4860105;29;20081;-47
2022/01/28 07:57:45;;;;;;;10.82;3.70;;;;;;;5.27;91.82;103355.41;4859650;29;20045;-47
2022/01/28 08:00:14;;;;;;;14.75;4.20;;;;;;;5.28;91.83;103357.91;4860145;29;20053;-49
2022/01/28 08:02:43;;;;;;;11.68;3.85;;;;;;;5.27;91.66;103360.81;4860144;29;20096;-49
2022/01/28 08:05:11;;;;;;;16.50;4.47;;;;;;;5.24;91.51;103367.41;4859794;29;20051;-49
2022/01/28 08:07:39;;;;;;;19.30;4.05;;;;;;;5.20;91.76;103371.44;4860138;29;20067;-47
2022/01/28 08:10:07;;;;;;;16.65;4.53;;;;;;;5.19;92.17;103367.03;4860147;29;20092;-48
2022/01/28 08:12:45;;;;;;;16.55;3.72;;;;;;;5.17;91.94;103365.53;4859176;29;20737;-53
2022/01/28 08:15:12;;;;;;;15.98;4.57;;;;;;;5.19;91.86;103368.91;4854590;29;20045;-49
2022/01/28 08:17:40;;;;;;;14.23;4.00;;;;;;;5.18;91.80;103380.75;4859462;29;20057;-49
2022/01/28 08:20:08;;;;;;;17.20;4.18;;;;;;;5.18;91.53;103391.56;4859440;29;20089;-48
2022/01/28 08:22:52;;;;;;;14.68;4.18;;;;;;;5.20;91.73;103393.06;4859371;29;20041;-48
2022/01/28 08:25:22;;;;;;;13.32;4.43;;;;;;;5.24;91.47;103391.72;4859548;29;20049;-47
2022/01/28 08:27:50;;;;;;;14.23;4.35;;;;;;;5.26;91.70;103394.25;4858434;29;20524;-47
2022/01/28 08:30:21;;;;;;;19.83;3.88;;;;;;;5.28;91.58;103393.06;4859202;29;20046;-50
2022/01/28 08:32:49;;;;;;;12.35;3.60;;;;;;;5.30;91.37;103392.91;4841256;29;20506;-46
2022/01/28 08:35:23;;;;;;;15.57;4.10;;;;;;;5.30;91.20;103393.75;4844954;29;20053;-48
2022/01/28 08:37:51;;;;;;;10.20;3.60;;;;;;;5.31;91.08;103394.56;4842079;29;20054;-50
2022/01/28 08:40:19;;;;;;;18.90;4.82;;;;;;;5.31;91.10;103405.38;4846281;29;20144;-49
2022/01/28 08:42:46;;;;;;;13.45;3.63;;;;;;;5.30;91.59;103392.91;4858570;29;20068;-49
2022/01/28 08:45:14;;;;;;;17.08;4.05;;;;;;;5.29;91.27;103397.47;4856045;29;20050;-49
2022/01/28 08:47:41;;;;;;;19.38;4.38;;;;;;;5.29;91.33;103402.00;4858130;29;20054;-47
2022/01/28 08:50:10;;;;;;;13.13;4.32;;;;;;;5.28;91.34;103395.75;4859071;29;20045;-51
2022/01/28 08:52:38;;;;;;;13.23;4.18;;;;;;;5.25;91.27;103396.09;4859104;29;20231;-45
2022/01/28 08:55:06;;;;;;;17.90;4.50;;;;;;;5.22;91.43;103396.47;4843276;29;20050;-49
2022/01/28 08:57:34;;;;;;;12.45;3.70;;;;;;;5.19;91.76;103412.16;4863526;29;20542;-45
2022/01/28 09:00:07;;;;;;;15.63;4.32;;;;;;;5.16;91.86;103404.38;4852144;29;20049;-48
2022/01/28 09:02:34;;;;;;;17.75;4.53;;;;;;;5.12;91.81;103412.84;4868205;29;20496;-47
2022/01/28 09:05:02;;;;;;;16.42;5.35;;;;;;;5.20;92.41;103411.16;4874860;29;20099;-49
2022/01/28 09:07:29;;;;;;;20.88;3.92;;;;;;;5.23;91.90;103410.81;4862106;29;20060;-48
2022/01/28 09:10:10;;;;;;;12.65;3.53;;;;;;;5.27;91.95;103401.34;4866201;29;20053;-47
2022/01/28 09:12:46;;;;;;;18.85;4.25;;;;;;;5.28;91.72;103403.03;4870987;29;20510;-47
2022/01/28 09:15:14;;;;;;;;;;;;;;;5.28;91.72;103400.34;4849093;29;20143;-52
2022/01/28 09:17:59;;;;;;;14.80;3.83;;;;;;;5.27;91.63;103413.00;4870171;29;20620;-50
2022/01/28 09:20:28;;;;;;;17.70;4.72;;;;;;;5.25;92.15;103404.22;4855259;29;20053;-49
2022/01/28 09:22:58;;;;;;;17.85;4.35;;;;;;;5.34;92.69;103411.31;4871980;29;20139;-47
2022/01/28 09:25:26;;;;;;;16.35;4.15;;;;;;;5.37;92.40;103415.53;4875158;29;20041;-48
2022/01/28 09:27:54;;;;;;;18.65;4.65;;;;;;;5.36;92.43;103416.53;4861861;29;20416;-48
2022/01/28 09:30:22;;;;;;;13.65;4.05;;;;;;;5.36;92.45;103416.53;4865620;29;20386;-48
2022/01/28 09:32:49;;;;;;;13.32;3.70;;;;;;;5.36;92.60;103413.84;4850115;29;20053;-49
2022/01/28 09:35:17;;;;;;;16.67;4.10;;;;;;;5.39;92.88;103421.63;4843398;29;20058;-47
2022/01/28 09:37:45;;;;;;;14.27;3.78;;;;;;;5.42;92.71;103418.56;4872579;29;20428;-49
2022/01/28 09:40:13;;;;;;;11.85;3.83;;;;;;;5.42;92.72;103413.16;4876894;29;20920;-47
2022/01/28 09:42:43;;;;;;;10.88;3.72;;;;;;;5.41;92.95;103416.91;4869800;29;20037;-47
2022/01/28 09:45:14;;;;;;;19.30;4.55;;;;;;;5.44;93.34;103427.38;4873490;29;20523;-48
2022/01/28 09:47:41;;;;;;;14.02;4.22;;;;;;;5.46;93.41;103429.88;4879577;29;20041;-50
2022/01/28 09:50:09;;;;;;;15.55;4.32;;;;;;;5.48;93.66;103434.13;4879542;29;20041;-45
2022/01/28 09:52:37;;;;;;;12.90;4.30;;;;;;;5.52;93.21;103445.44;4846781;29;20088;-48
2022/01/28 09:55:05;;;;;;;15.20;3.60;;;;;;;5.49;93.61;103443.91;4842690;29;20050;-49
2022/01/28 09:57:33;;;;;;;15.23;4.65;;;;;;;5.54;93.78;103449.66;4841422;29;20580;-51
2022/01/28 10:00:01;;;;;;;13.02;4.47;;;;;;;5.54;93.73;103446.97;4845031;29;20136;-49
2022/01/28 10:02:53;;;;;;;13.23;3.97;;;;;;;5.57;93.41;103453.06;4861080;29;20060;-50
2022/01/28 10:05:26;;;;;;;18.80;4.40;;;;;;;5.55;93.61;103451.34;4861218;29;20128;-50
2022/01/28 10:08:01;;;;;;;12.93;4.03;;;;;;;5.60;93.57;103455.41;4861215;29;20076;-48
2022/01/28 10:10:44;;;;;;;14.57;4.20;;;;;;;5.62;93.65;103459.63;4861357;29;20045;-47
2022/01/28 10:13:19;;;;;;;18.27;4.55;;;;;;;5.66;93.91;103460.16;4860853;29;20117;-47
2022/01/28 10:15:58;;;;;;;16.90;4.55;;;;;;;5.69;93.83;103457.09;4861609;29;20060;-48
2022/01/28 10:18:43;;;;;;;14.82;4.40;;;;;;;5.72;94.09;103456.75;4861346;29;20074;-49
2022/01/28 10:21:16;;;;;;;18.38;4.40;;;;;;;5.76;94.31;103455.41;4860999;29;20136;-51
2022/01/28 10:24:04;;;;;;;17.08;4.60;;;;;;;5.79;94.39;103457.75;4860201;29;20061;-50
2022/01/28 10:26:50;;;;;;;18.77;4.80;;;;;;;5.80;94.50;103455.88;4860813;29;20402;-47
2022/01/28 10:29:28;;;;;;;16.40;4.18;;;;;;;5.81;94.76;103466.53;4860798;29;20049;-47
2022/01/28 10:32:03;;;;;;;16.52;3.70;;;;;;;5.84;94.53;103455.38;4860506;29;20568;-48
2022/01/28 10:34:36;;;;;;;14.20;4.88;;;;;;;5.90;94.51;103443.03;4844378;29;20406;-49
2022/01/28 10:37:25;;;;;;;15.52;4.25;;;;;;;5.91;94.08;103456.38;4861180;29;20061;-48
2022/01/28 10:40:01;;;;;;;13.95;3.95;;;;;;;5.89;94.17;103463.84;4860863;29;20132;-49
2022/01/28 10:42:41;;;;;;;16.42;4.47;;;;;;;5.94;94.37;103457.94;4860044;29;20050;-47
2022/01/28 10:45:14;;;;;;;17.15;4.18;;;;;;;5.97;94.44;103457.59;4860924;29;20053;-47
2022/01/28 10:47:43;;;;;;;16.17;4.38;;;;;;;5.96;94.46;103464.88;4860957;29;20041;-47
2022/01/28 10:50:46;;;;;;;18.67;4.47;;;;;;;5.97;94.35;103466.56;4843115;29;20515;-49
2022/01/28 10:53:17;;;;;;;17.30;4.70;;;;;;;5.98;94.44;103462.81;4822030;29;20055;-44
2022/01/28 10:55:58;;;;;;;17.35;4.35;;;;;;;6.03;94.74;103458.75;4821764;29;20055;-46
2022/01/28 10:58:27;;;;;;;16.35;4.55;;;;;;;6.09;95.00;103452.69;4806511;29;20050;-46
2022/01/28 11:01:01;;;;;;;16.27;4.45;;;;;;;6.13;94.81;103454.88;4821627;29;20050;-47
2022/01/28 11:03:29;;;;;;;16.33;4.60;;;;;;;6.16;94.80;103445.56;4803251;29;20059;-43
2022/01/28 11:05:59;;;;;;;16.40;4.50;;;;;;;6.17;95.07;103445.34;4803790;29;20527;-45
2022/01/28 11:08:29;;;;;;;18.00;4.80;;;;;;;6.21;95.06;103440.47;4803463;29;20133;-46
2022/01/28 11:10:58;;;;;;;15.38;4.70;;;;;;;6.31;96.35;103437.53;4815279;29;20123;-45
2022/01/28 11:13:25;;;;;;;17.05;4.50;;;;;;;6.34;95.20;103437.19;4821377;29;20046;-50
2022/01/28 11:15:54;;;;;;;16.23;4.50;;;;;;;6.34;94.93;103429.91;4821865;29;20057;-47
2022/01/28 11:18:23;;;;;;;16.33;4.45;;;;;;;6.36;94.41;103427.88;4822460;29;20055;-52
2022/01/28 11:20:55;;;;;;;14.43;4.35;;;;;;;6.36;93.26;103418.91;4823983;29;20054;-51
2022/01/28 11:23:53;;;;;;;20.92;4.90;;;;;;;6.35;92.08;103415.34;4805674;29;20046;-49
2022/01/28 11:26:26;;;;;;;19.27;4.55;;;;;;;6.36;90.95;103408.91;4809332;29;20045;-45
2022/01/28 11:28:57;;;;;;;16.05;3.58;;;;;;;6.37;88.90;103405.19;4826097;29;20121;-45
2022/01/28 11:31:48;;;;;;;15.25;3.90;;;;;;;6.38;89.33;103406.03;4858489;29;20052;-45
2022/01/28 11:34:19;;;;;;;15.52;4.18;;;;;;;6.37;88.89;103396.22;4856582;29;20059;-45
2022/01/28 11:36:47;;;;;;;18.38;4.15;;;;;;;6.37;88.66;103394.38;4860432;29;20420;-48
2022/01/28 11:39:22;;;;;;;15.10;3.88;;;;;;;6.39;88.16;103395.00;4860139;29;20515;-48
2022/01/28 11:42:23;;;;;;;16.50;4.32;;;;;;;6.42;89.10;103387.56;4843546;29;20865;-49
2022/01/28 11:44:50;;;;;;;17.30;4.05;;;;;;;6.43;89.28;103392.81;4841846;29;20046;-49
2022/01/28 11:47:29;;;;;;;16.77;4.28;;;;;;;6.42;88.33;103388.41;4842102;29;20042;-48
2022/01/28 11:50:16;;;;;;;19.77;4.07;;;;;;;6.47;88.10;103394.16;4841725;29;20054;-50
2022/01/28 11:52:46;;;;;;;15.00;4.10;;;;;;;6.47;86.96;103385.16;4853576;29;20810;-46
2022/01/28 11:55:20;;;;;;;15.38;4.05;;;;;;;6.49;85.93;103380.41;4859908;29;20048;-52
2022/01/28 11:58:02;;;;;;;13.45;4.13;;;;;;;6.51;86.03;103387.34;4859690;29;20080;-50
2022/01/28 12:00:47;;;;;;;11.73;3.50;;;;;;;6.55;85.96;103387.84;4860003;29;20049;-49
2022/01/28 12:03:20;;;;;;;16.23;3.42;;;;;;;6.55;84.76;103391.38;4861791;29;20046;-49
2022/01/28 12:05:49;;;;;;;72.43;35.40;;;;;;;6.66;87.92;103389.28;4863633;29;20424;-47
2022/01/28 12:08:18;;;;;;;15.30;3.72;;;;;;;6.81;84.66;103388.34;4863229;29;20046;-47
2022/01/28 12:10:49;;;;;;;17.65;4.03;;;;;;;6.79;84.31;103390.41;4863359;29;20053;-47
2022/01/28 12:13:21;;;;;;;16.83;3.78;;;;;;;6.74;83.53;103387.38;4862823;29;20057;-50
2022/01/28 12:16:13;;;;;;;13.57;3.33;;;;;;;6.71;83.43;103378.75;4847564;29;20045;-47
2022/01/28 12:18:44;;;;;;;13.38;3.67;;;;;;;6.69;83.19;103370.81;4863057;29;20041;-48
2022/01/28 12:21:14;;;;;;;14.43;3.42;;;;;;;6.68;83.45;103377.25;4862909;29;20052;-48
2022/01/28 12:23:43;;;;;;;34.22;14.18;;;;;;;6.75;86.20;103364.66;4862732;29;20089;-45
2022/01/28 12:26:16;;;;;;;13.07;3.85;;;;;;;6.85;81.80;103355.47;4831787;29;20156;-46
2022/01/28 12:28:46;;;;;;;11.57;3.40;;;;;;;6.82;81.33;103352.09;4847214;29;20056;-49
2022/01/28 12:31:15;;;;;;;14.43;3.50;;;;;;;6.81;81.87;103358.53;4862889;29;20037;-48
2022/01/28 12:33:46;;;;;;;17.05;3.95;;;;;;;6.79;82.49;103347.03;4862849;29;20105;-47
2022/01/28 12:36:15;;;;;;;17.98;4.13;;;;;;;6.81;82.61;103339.56;4862613;29;20056;-48
2022/01/28 12:38:56;;;;;;;15.07;3.97;;;;;;;6.83;82.25;103334.81;4846782;29;20053;-52
2022/01/28 12:41:25;;;;;;;14.20;3.80;;;;;;;6.85;83.24;103333.78;4863023;29;20053;-47
2022/01/28 12:43:54;;;;;;;13.60;4.28;;;;;;;6.86;82.83;103335.50;4862419;29;20052;-48
2022/01/28 12:46:23;;;;;;;14.88;4.00;;;;;;;6.92;82.09;103332.03;4862406;29;20079;-45
2022/01/28 12:48:54;;;;;;;13.07;3.70;;;;;;;6.94;80.94;103330.00;4862731;29;20042;-46
2022/01/28 12:51:23;;;;;;;13.63;3.90;;;;;;;6.97;81.42;103322.31;4862201;29;20140;-47
2022/01/28 12:53:54;;;;;;;13.48;4.03;;;;;;;7.02;80.40;103330.78;4862363;29;20045;-45
2022/01/28 12:56:36;;;;;;;10.70;3.28;;;;;;;7.05;80.50;103318.72;4862169;29;20047;-48
2022/01/28 12:59:04;;;;;;;16.13;4.88;;;;;;;7.05;79.68;103324.16;4862247;29;20414;-48
2022/01/28 13:01:32;;;;;;;13.57;4.20;;;;;;;7.01;79.64;103326.38;4862351;29;20057;-48
2022/01/28 13:04:13;;;;;;;13.98;3.53;;;;;;;6.98;79.67;103324.03;4862529;29;20114;-47
2022/01/28 13:09:18;;;;;;;13.50;3.75;;;;;;;7.02;81.58;103314.50;4862445;29;20152;-47